Zagreb — 9AA5910 — position and weather

sailwx.info

Track history (hours):
 
Tides and Currents Weather Stations Pressure Air Temp Water Temp Dewpoint Dewpoint Depression Visibility Wind Speed Wind Dir Waves Ship Positions

Zagreb

Last reported at 2017-Apr-27 09:01 UTC. Time now 2017-Apr-30 22:43 UTC.
Position N 53°31' E 005°15'.

Length 229 m; draft 11.1 m.

Type: Cargo ship. MMSI: 238249000.

Date/timePositionNaut miles runAvg speedWind from/ knotsBaromVisibWave heightAir tempDewpointWater temp
2017-Apr-27 09:01N 53°31' E 005°15'012.6
2017-Apr-27 09:00N 53°31' E 005°14'3112.6
2017-Apr-27 06:33N 53°12' E 004°34'113.6
2017-Apr-27 06:30N 53°11' E 004°33'713.2
2017-Apr-27 06:00N 53°06' E 004°27'713.5
2017-Apr-27 05:30N 53°00' E 004°21'713.7
2017-Apr-27 05:00N 52°54' E 004°16'713.8
2017-Apr-27 04:30N 52°48' E 004°11'713.7
2017-Apr-27 04:00N 52°41' E 004°07'612.8
2017-Apr-27 03:30N 52°35' E 004°07'612.5
2017-Apr-27 03:00N 52°31' E 004°15'611.5
2017-Apr-27 02:30N 52°29' E 004°24'4 7.8
2017-Apr-27 02:00N 52°28' E 004°30'4 8.0
2017-Apr-27 01:31N 52°28' E 004°36'0 0.7
2017-Apr-27 01:00N 52°28' E 004°37'2 4.4
2017-Apr-27 00:30N 52°27' E 004°40'4 7.3
2017-Apr-27 00:01N 52°26' E 004°46'2 4.1
2017-Apr-26 23:30N 52°25' E 004°49'0 0.5
2017-Apr-26 23:00N 52°25' E 004°49'0 0.0
2017-Apr-26 22:30N 52°25' E 004°49'0 0.0
2017-Apr-26 22:00N 52°25' E 004°49'0 0.0
2017-Apr-26 21:30N 52°25' E 004°49'0 0.0
2017-Apr-26 21:00N 52°25' E 004°49'0 0.0
2017-Apr-26 20:30N 52°25' E 004°49'0 0.0
2017-Apr-26 20:00N 52°25' E 004°49'0 0.0
2017-Apr-26 19:30N 52°25' E 004°49'0 0.0
2017-Apr-26 19:00N 52°25' E 004°49'0 0.0
2017-Apr-26 18:30N 52°25' E 004°49'0 0.0
2017-Apr-26 18:00N 52°25' E 004°49'0 0.0
2017-Apr-26 17:30N 52°25' E 004°49'0 0.0
2017-Apr-26 17:00N 52°25' E 004°49'0 0.0
2017-Apr-26 16:30N 52°25' E 004°49'0 0.0
2017-Apr-26 16:00N 52°25' E 004°49'0 0.0
2017-Apr-26 15:30N 52°25' E 004°49'0 0.0
2017-Apr-26 15:00N 52°25' E 004°49'0 0.0
2017-Apr-26 14:30N 52°25' E 004°49'0 0.0
2017-Apr-26 13:30N 52°25' E 004°49'0 0.0
2017-Apr-26 13:00N 52°25' E 004°49'0 0.0
2017-Apr-26 12:30N 52°25' E 004°49'0 0.0
2017-Apr-26 12:00N 52°25' E 004°49'0 0.0
2017-Apr-26 11:30N 52°25' E 004°49'0 0.0
2017-Apr-26 11:00N 52°25' E 004°49'0 0.0
2017-Apr-26 10:30N 52°25' E 004°49'0 0.0
2017-Apr-26 10:00N 52°25' E 004°49'0 0.0
2017-Apr-26 09:30N 52°25' E 004°49'0 0.0
2017-Apr-26 09:00N 52°25' E 004°49'0 0.0
2017-Apr-26 08:30N 52°25' E 004°49'0 0.0
2017-Apr-26 08:00N 52°25' E 004°49'0 0.0
2017-Apr-26 07:30N 52°25' E 004°49'0 0.0
2017-Apr-26 06:54N 52°25' E 004°49'0 0.0
2017-Apr-26 06:30N 52°25' E 004°49'0 0.0
2017-Apr-26 06:00N 52°25' E 004°49'0 0.0
2017-Apr-26 05:30N 52°25' E 004°49'0 0.1
2017-Apr-26 05:00N 52°25' E 004°49'0 0.1
2017-Apr-26 04:30N 52°25' E 004°49'0 0.0
2017-Apr-26 04:00N 52°25' E 004°49'0 0.0
2017-Apr-26 03:30N 52°25' E 004°49'0 0.0
2017-Apr-26 03:00N 52°25' E 004°49'0 0.0
2017-Apr-26 02:30N 52°25' E 004°49'0 0.0
2017-Apr-26 02:00N 52°25' E 004°49'0 0.0
2017-Apr-26 01:30N 52°25' E 004°49'0 0.0
2017-Apr-26 00:57N 52°25' E 004°49'0 0.0
2017-Apr-26 00:30N 52°25' E 004°49'0 0.0
2017-Apr-26 00:00N 52°25' E 004°49'0 0.0
2017-Apr-25 23:30N 52°25' E 004°49'0 0.0
2017-Apr-25 23:00N 52°25' E 004°49'0 0.0
2017-Apr-25 22:30N 52°25' E 004°49'0 0.0
2017-Apr-25 22:00N 52°25' E 004°49'0 0.0
2017-Apr-25 21:30N 52°25' E 004°49'0 0.0
2017-Apr-25 21:00N 52°25' E 004°49'0 0.0
2017-Apr-25 20:30N 52°25' E 004°49'0 0.0
2017-Apr-25 20:00N 52°25' E 004°49'1 2.1
2017-Apr-25 19:31N 52°25' E 004°48'3 6.1
2017-Apr-25 19:00N 52°26' E 004°43'3 5.7
2017-Apr-25 18:30N 52°28' E 004°39'2 3.1
2017-Apr-25 18:00N 52°28' E 004°36'0 0.0
2017-Apr-25 17:31N 52°28' E 004°36'0 0.0
2017-Apr-25 17:01N 52°28' E 004°36'1 2.1
2017-Apr-25 16:30N 52°28' E 004°35'4 7.8
2017-Apr-25 16:01N 52°28' E 004°28'4 7.2
2017-Apr-25 15:30N 52°29' E 004°22'3 5.6
2017-Apr-25 15:01N 52°28' E 004°18'6 6.1
2017-Apr-25 13:58N 52°28' E 004°08'0 0.0
2017-Apr-25 13:28N 52°28' E 004°08'0 0.1
2017-Apr-25 12:58N 52°28' E 004°08'0 0.4
2017-Apr-25 12:28N 52°28' E 004°08'0 0.1
2017-Apr-25 11:58N 52°28' E 004°08'0 0.1
2017-Apr-25 11:28N 52°27' E 004°08'0 0.1
2017-Apr-25 10:58N 52°27' E 004°08'0 0.1
2017-Apr-25 10:28N 52°27' E 004°08'0 0.1
2017-Apr-25 09:58N 52°27' E 004°07'0 0.0
2017-Apr-25 09:28N 52°27' E 004°07'0 0.1
2017-Apr-25 08:58N 52°27' E 004°07'0 0.0
2017-Apr-25 08:28N 52°27' E 004°07'0 0.0
2017-Apr-25 07:58N 52°27' E 004°07'0 0.0
2017-Apr-25 07:28N 52°27' E 004°07'0 0.1
2017-Apr-25 06:58N 52°27' E 004°08'0 0.1
2017-Apr-25 06:28N 52°27' E 004°08'0 0.1
2017-Apr-25 05:58N 52°27' E 004°08'0 0.1
2017-Apr-25 05:28N 52°27' E 004°08'0 0.1
2017-Apr-25 04:58N 52°28' E 004°08'0 0.1
2017-Apr-25 04:28N 52°28' E 004°08'0 0.3
2017-Apr-25 03:58N 52°28' E 004°08'0 0.1
2017-Apr-25 03:28N 52°28' E 004°08'0 0.1
2017-Apr-25 02:58N 52°28' E 004°08'0 0.1
2017-Apr-25 02:28N 52°28' E 004°08'0 0.0
2017-Apr-25 01:55N 52°28' E 004°08'0 0.0
2017-Apr-25 01:28N 52°28' E 004°08'0 0.0
2017-Apr-25 00:58N 52°28' E 004°08'0 0.1
2017-Apr-25 00:28N 52°28' E 004°08'0 0.2
2017-Apr-24 23:58N 52°28' E 004°08'0 0.1
2017-Apr-24 23:28N 52°28' E 004°08'0 0.2
2017-Apr-24 22:58N 52°28' E 004°08'0 0.2
2017-Apr-24 22:28N 52°28' E 004°07'0 0.1
2017-Apr-24 21:58N 52°28' E 004°07'0 0.0
2017-Apr-24 21:28N 52°28' E 004°07'0 0.0
2017-Apr-24 20:58N 52°28' E 004°07'0 0.0
2017-Apr-24 20:28N 52°28' E 004°07'0 0.0
2017-Apr-24 19:58N 52°28' E 004°07'0 0.0
2017-Apr-24 19:28N 52°28' E 004°07'0 0.0
2017-Apr-24 18:58N 52°28' E 004°07'0 0.0
2017-Apr-24 18:28N 52°28' E 004°07'0 0.1
2017-Apr-24 17:58N 52°28' E 004°07'0 0.1
2017-Apr-24 17:28N 52°28' E 004°08'0 0.1
2017-Apr-24 16:58N 52°28' E 004°08'0 0.2
2017-Apr-24 16:28N 52°28' E 004°08'0 0.1
2017-Apr-24 15:58N 52°28' E 004°08'0 0.0
2017-Apr-24 15:28N 52°28' E 004°08'0 0.0
2017-Apr-24 14:55N 52°28' E 004°08'0 0.0
2017-Apr-24 14:28N 52°28' E 004°08'0 0.0
2017-Apr-24 13:28N 52°28' E 004°08'0 0.0
2017-Apr-24 12:58N 52°28' E 004°08'0 0.0
2017-Apr-24 12:28N 52°28' E 004°08'0 0.1
2017-Apr-24 11:58N 52°28' E 004°08'0 0.1
2017-Apr-24 11:28N 52°28' E 004°08'0 0.1
2017-Apr-24 10:58N 52°28' E 004°08'0 0.2
2017-Apr-24 10:28N 52°28' E 004°08'0 0.1
2017-Apr-24 09:58N 52°28' E 004°07'0 0.1
2017-Apr-24 09:28N 52°28' E 004°07'0 0.1
2017-Apr-24 08:58N 52°28' E 004°07'0 0.1
2017-Apr-24 08:28N 52°28' E 004°07'0 0.0
2017-Apr-24 07:55N 52°28' E 004°07'0 0.0
2017-Apr-24 07:28N 52°28' E 004°07'0 0.0
2017-Apr-24 06:58N 52°28' E 004°07'0 0.1
2017-Apr-24 06:28N 52°28' E 004°07'0 0.2
2017-Apr-24 05:58N 52°28' E 004°08'0 0.2
2017-Apr-24 05:28N 52°28' E 004°08'0 0.1
2017-Apr-24 04:58N 52°28' E 004°08'0 0.1
2017-Apr-24 04:28N 52°28' E 004°08'0 0.1
2017-Apr-24 03:55N 52°28' E 004°08'0 0.1
2017-Apr-24 03:28N 52°28' E 004°08'0 0.0
2017-Apr-24 02:55N 52°28' E 004°08'0 0.0
2017-Apr-24 02:28N 52°28' E 004°08'0 0.0
2017-Apr-24 01:58N 52°28' E 004°08'0 0.0
2017-Apr-24 01:22N 52°28' E 004°08'0 0.0
2017-Apr-24 00:58N 52°28' E 004°08'0 0.0
2017-Apr-24 00:25N 52°28' E 004°08'0 0.0
2017-Apr-23 23:55N 52°28' E 004°08'0 0.1
2017-Apr-23 23:25N 52°28' E 004°08'0 0.1
2017-Apr-23 22:55N 52°28' E 004°08'0 0.2
2017-Apr-23 22:28N 52°28' E 004°08'0 0.2
2017-Apr-23 21:55N 52°28' E 004°08'0 0.1
2017-Apr-23 21:25N 52°28' E 004°07'0 0.1
2017-Apr-23 20:58N 52°28' E 004°07'0 0.0
2017-Apr-23 20:28N 52°28' E 004°07'0 0.0
2017-Apr-23 19:55N 52°28' E 004°07'0 0.0
2017-Apr-23 19:28N 52°28' E 004°07'0 0.0
2017-Apr-23 18:55N 52°28' E 004°07'0 0.0
2017-Apr-23 18:28N 52°28' E 004°07'0 0.0
2017-Apr-23 17:58N 52°28' E 004°07'0 0.1
2017-Apr-23 17:25N 52°28' E 004°07'0 0.1
2017-Apr-23 16:55N 52°27' E 004°08'0 0.1
2017-Apr-23 16:28N 52°28' E 004°08'0 0.1
2017-Apr-23 15:55N 52°28' E 004°08'0 0.3
2017-Apr-23 15:25N 52°28' E 004°08'0 0.1
2017-Apr-23 14:34N 52°28' E 004°07'0 0.0
2017-Apr-23 13:46N 52°28' E 004°07'0 0.0
2017-Apr-23 13:04N 52°28' E 004°07'0 0.1
2017-Apr-23 12:58N 52°28' E 004°07'0 0.0
2017-Apr-23 12:28N 52°28' E 004°07'0 0.1
2017-Apr-23 11:55N 52°28' E 004°08'0 0.2
2017-Apr-23 11:25N 52°28' E 004°08'0 0.3
2017-Apr-23 10:58N 52°28' E 004°08'0 0.2
2017-Apr-23 10:28N 52°27' E 004°08'0 0.1
2017-Apr-23 09:58N 52°27' E 004°08'0 0.1
2017-Apr-23 09:25N 52°27' E 004°07'0 0.1
2017-Apr-23 08:58N 52°27' E 004°07'0 0.0
2017-Apr-23 08:25N 52°27' E 004°07'0 0.0
2017-Apr-23 07:55N 52°27' E 004°07'0 0.0
2017-Apr-23 07:28N 52°27' E 004°07'0 0.0
2017-Apr-23 06:58N 52°27' E 004°07'0 0.0
2017-Apr-23 06:28N 52°27' E 004°07'0 0.0
2017-Apr-23 05:58N 52°27' E 004°07'0 0.0
2017-Apr-23 05:28N 52°27' E 004°07'0 0.0
2017-Apr-23 04:58N 52°27' E 004°07'0 0.1
2017-Apr-23 04:25N 52°27' E 004°07'0 0.0
2017-Apr-23 03:55N 52°27' E 004°07'0 0.1
2017-Apr-23 03:25N 52°27' E 004°08'0 0.0
2017-Apr-23 02:58N 52°27' E 004°08'0 0.1
2017-Apr-23 02:28N 52°27' E 004°08'0 0.2
2017-Apr-23 01:58N 52°28' E 004°08'0 0.1
2017-Apr-23 01:25N 52°28' E 004°08'0 0.0
2017-Apr-23 00:55N 52°28' E 004°08'0 0.1
2017-Apr-23 00:25N 52°28' E 004°08'0 0.1
2017-Apr-22 23:58N 52°28' E 004°08'0 0.1
2017-Apr-22 23:28N 52°28' E 004°08'0 0.1
2017-Apr-22 22:58N 52°27' E 004°08'0 0.1
2017-Apr-22 22:28N 52°27' E 004°08'0 0.1
2017-Apr-22 21:58N 52°27' E 004°08'0 0.1
2017-Apr-22 21:28N 52°27' E 004°07'0 0.0
2017-Apr-22 20:55N 52°27' E 004°07'0 0.1
2017-Apr-22 20:25N 52°27' E 004°07'0 0.0
2017-Apr-22 19:58N 52°27' E 004°07'0 0.0
2017-Apr-22 19:28N 52°27' E 004°07'0 0.0
2017-Apr-22 18:58N 52°27' E 004°07'0 0.0
2017-Apr-22 18:25N 52°27' E 004°07'0 0.0
2017-Apr-22 17:58N 52°27' E 004°07'0 0.0
2017-Apr-22 17:28N 52°27' E 004°07'0 0.0
2017-Apr-22 16:55N 52°27' E 004°07'0 0.0
2017-Apr-22 16:28N 52°27' E 004°07'0 0.1
2017-Apr-22 15:58N 52°27' E 004°07'0 0.0
2017-Apr-22 15:28N 52°27' E 004°07'0 0.0
2017-Apr-22 14:55N 52°27' E 004°08'0 0.1
2017-Apr-22 14:25N 52°27' E 004°08'0 0.1
2017-Apr-22 13:28N 52°28' E 004°08'0 0.2
2017-Apr-22 12:58N 52°28' E 004°08'0 0.0
2017-Apr-22 12:13N 52°28' E 004°08'0 0.1
2017-Apr-22 11:58N 52°28' E 004°08'0 0.1
2017-Apr-22 11:28N 52°28' E 004°08'0 0.1
2017-Apr-22 10:58N 52°28' E 004°08'0 0.1
2017-Apr-22 10:28N 52°27' E 004°08'0 0.1
2017-Apr-22 09:58N 52°27' E 004°07'0 0.1
2017-Apr-22 09:28N 52°27' E 004°07'0 0.0
2017-Apr-22 08:58N 52°27' E 004°07'0 0.0
2017-Apr-22 08:28N 52°27' E 004°07'0 0.1
2017-Apr-22 07:58N 52°27' E 004°07'0 0.0
2017-Apr-22 07:28N 52°27' E 004°07'0 0.1
2017-Apr-22 06:58N 52°27' E 004°07'0 0.0
2017-Apr-22 06:28N 52°27' E 004°07'0 0.0
2017-Apr-22 05:58N 52°27' E 004°07'0 0.0
2017-Apr-22 05:28N 52°27' E 004°07'0 0.0
2017-Apr-22 04:58N 52°27' E 004°07'0 0.0
2017-Apr-22 04:28N 52°27' E 004°07'0 0.0
2017-Apr-22 03:58N 52°27' E 004°07'0 0.1
2017-Apr-22 03:28N 52°27' E 004°07'0 0.0
2017-Apr-22 02:58N 52°27' E 004°07'0 0.0
2017-Apr-22 02:28N 52°27' E 004°07'0 0.2
2017-Apr-22 01:58N 52°28' E 004°08'0 0.2
2017-Apr-22 01:28N 52°28' E 004°08'0 0.1
2017-Apr-22 00:58N 52°28' E 004°07'0 0.0
2017-Apr-22 00:28N 52°28' E 004°07'0 0.0
2017-Apr-21 23:58N 52°28' E 004°07'0 0.0
2017-Apr-21 23:28N 52°28' E 004°07'0 0.0
2017-Apr-21 22:58N 52°28' E 004°07'0 0.0
2017-Apr-21 22:25N 52°28' E 004°07'0 0.1
2017-Apr-21 21:58N 52°28' E 004°08'0 0.1
2017-Apr-21 21:28N 52°28' E 004°08'0 0.2
2017-Apr-21 20:58N 52°28' E 004°08'0 0.2
2017-Apr-21 20:28N 52°28' E 004°08'0 0.1
2017-Apr-21 19:58N 52°28' E 004°08'0 0.1
2017-Apr-21 19:28N 52°27' E 004°07'0 0.1
2017-Apr-21 18:58N 52°27' E 004°07'0 0.0
2017-Apr-21 18:28N 52°27' E 004°07'0 0.0
2017-Apr-21 17:58N 52°27' E 004°07'0 0.0
2017-Apr-21 17:28N 52°27' E 004°07'0 0.0
2017-Apr-21 16:58N 52°27' E 004°07'0 0.0
2017-Apr-21 16:28N 52°27' E 004°07'0 0.0
2017-Apr-21 15:55N 52°27' E 004°07'0 0.1
2017-Apr-21 15:28N 52°27' E 004°07'0 0.2
2017-Apr-21 14:58N 52°28' E 004°08'0 0.1
2017-Apr-21 14:28N 52°28' E 004°08'0 0.1
2017-Apr-21 13:28N 52°28' E 004°08'0 0.1
2017-Apr-21 12:58N 52°28' E 004°08'0 0.1
2017-Apr-21 12:28N 52°28' E 004°08'0 0.0
2017-Apr-21 11:58N 52°28' E 004°08'0 0.0
2017-Apr-21 11:28N 52°28' E 004°07'0 0.0
2017-Apr-21 10:58N 52°28' E 004°07'0 0.0
2017-Apr-21 10:28N 52°28' E 004°08'0 0.0
2017-Apr-21 09:58N 52°28' E 004°07'0 0.0
2017-Apr-21 09:28N 52°28' E 004°08'0 0.1
2017-Apr-21 08:58N 52°28' E 004°08'0 0.0
2017-Apr-21 08:28N 52°28' E 004°08'0 0.2
2017-Apr-21 07:58N 52°28' E 004°08'0 0.2
2017-Apr-21 07:28N 52°27' E 004°08'0 0.1
2017-Apr-21 06:58N 52°27' E 004°07'0 0.2
2017-Apr-21 06:28N 52°27' E 004°07'0 0.3
2017-Apr-21 06:01N 52°28' E 004°07'0 0.2
2017-Apr-21 05:31N 52°28' E 004°07'1 1.9
2017-Apr-21 05:01N 52°28' E 004°06'2 4.8
2017-Apr-21 04:31N 52°28' E 004°02'3 6.3
2017-Apr-21 04:01N 52°27' E 003°57'4 7.2
2017-Apr-21 03:31N 52°30' E 003°53'611.5
2017-Apr-21 03:00N 52°36' E 003°53'2212.1
2017-Apr-21 01:11N 52°58' E 004°01'1311.3
2017-Apr-21 00:01N 53°07' E 004°17'34011.1
2017-Apr-19 17:30N 57°50' E 009°48'510.7
2017-Apr-19 17:00N 57°50' E 009°58'611.2
2017-Apr-19 16:29N 57°50' E 010°09'611.3
2017-Apr-19 15:59N 57°50' E 010°19'611.5
2017-Apr-19 15:30N 57°51' E 010°30'611.2
2017-Apr-19 15:00N 57°51' E 010°40'611.3
2017-Apr-19 14:28N 57°47' E 010°48'9 8.9
2017-Apr-19 13:30N 57°41' E 010°60'510.6
2017-Apr-19 13:00N 57°37' E 011°07'611.6
2017-Apr-19 12:31N 57°33' E 011°15'611.2
2017-Apr-19 12:00N 57°29' E 011°22'611.3
2017-Apr-19 11:30N 57°24' E 011°27'611.6
2017-Apr-19 11:00N 57°19' E 011°31'611.4
2017-Apr-19 10:31N 57°14' E 011°35'611.8
2017-Apr-19 10:00N 57°08' E 011°39'11510.5
2017-Apr-18 23:05N 55°15' E 011°06'111.9
2017-Apr-18 23:00N 55°14' E 011°06'511.2
2017-Apr-18 22:31N 55°09' E 011°00'612.2
2017-Apr-18 22:01N 55°03' E 010°60'611.5
2017-Apr-18 21:31N 54°58' E 010°56'611.9
2017-Apr-18 21:01N 54°53' E 010°50'612.1
2017-Apr-18 20:31N 54°47' E 010°49'611.2
2017-Apr-18 20:01N 54°41' E 010°47'611.8
2017-Apr-18 19:31N 54°38' E 010°55'611.8
2017-Apr-18 19:01N 54°36' E 011°05'612.0
2017-Apr-18 18:31N 54°35' E 011°15'612.1
2017-Apr-18 18:01N 54°32' E 011°24'612.1
2017-Apr-18 17:30N 54°29' E 011°34'1711.7
2017-Apr-18 16:01N 54°26' E 012°03'011.3
2017-Apr-18 16:01N 54°26' E 012°03'510.0
2017-Apr-18 15:30N 54°28' E 012°12'510.2
2017-Apr-18 15:01N 54°33' E 012°14'5 9.9
2017-Apr-18 14:31N 54°37' E 012°18'5010.4
2017-Apr-18 09:40N 54°59' E 013°37'212.4
2017-Apr-18 09:29N 54°60' E 013°40'612.5
2017-Apr-18 09:00N 55°01' E 013°50'612.3
2017-Apr-18 08:29N 55°03' E 014°01'611.9
2017-Apr-18 08:00N 55°07' E 014°09'612.0
2017-Apr-18 07:30N 55°12' E 014°15'612.2
2017-Apr-18 07:00N 55°16' E 014°22'612.4
2017-Apr-18 06:29N 55°21' E 014°29'612.2
2017-Apr-18 05:58N 55°26' E 014°36'612.1
2017-Apr-18 05:30N 55°29' E 014°45'612.4
2017-Apr-18 04:59N 55°32' E 014°55'712.5
2017-Apr-18 04:27N 55°35' E 015°06'612.4
2017-Apr-18 03:57N 55°38' E 015°16'  
Track history (hours):
 
Tides and Currents Weather Stations Pressure Air Temp Water Temp Dewpoint Dewpoint Depression Visibility Wind Speed Wind Dir Waves Ship Positions

Zagreb

Last reported at 2017-Apr-27 09:01 UTC. Time now 2017-Apr-30 22:43 UTC.
Position N 53°31' E 005°15'.

Length 229 m; draft 11.1 m.

Type: Cargo ship. MMSI: 238249000.

Date/timePositionNaut miles runAvg speedWind from/ knotsBaromVisibWave heightAir tempDewpointWater temp
2017-Apr-27 09:01N 53°31' E 005°15'012.6
2017-Apr-27 09:00N 53°31' E 005°14'3112.6
2017-Apr-27 06:33N 53°12' E 004°34'113.6
2017-Apr-27 06:30N 53°11' E 004°33'713.2
2017-Apr-27 06:00N 53°06' E 004°27'713.5
2017-Apr-27 05:30N 53°00' E 004°21'713.7
2017-Apr-27 05:00N 52°54' E 004°16'713.8
2017-Apr-27 04:30N 52°48' E 004°11'713.7
2017-Apr-27 04:00N 52°41' E 004°07'612.8
2017-Apr-27 03:30N 52°35' E 004°07'612.5
2017-Apr-27 03:00N 52°31' E 004°15'611.5
2017-Apr-27 02:30N 52°29' E 004°24'4 7.8
2017-Apr-27 02:00N 52°28' E 004°30'4 8.0
2017-Apr-27 01:31N 52°28' E 004°36'0 0.7
2017-Apr-27 01:00N 52°28' E 004°37'2 4.4
2017-Apr-27 00:30N 52°27' E 004°40'4 7.3
2017-Apr-27 00:01N 52°26' E 004°46'2 4.1
2017-Apr-26 23:30N 52°25' E 004°49'0 0.5
2017-Apr-26 23:00N 52°25' E 004°49'0 0.0
2017-Apr-26 22:30N 52°25' E 004°49'0 0.0
2017-Apr-26 22:00N 52°25' E 004°49'0 0.0
2017-Apr-26 21:30N 52°25' E 004°49'0 0.0
2017-Apr-26 21:00N 52°25' E 004°49'0 0.0
2017-Apr-26 20:30N 52°25' E 004°49'0 0.0
2017-Apr-26 20:00N 52°25' E 004°49'0 0.0
2017-Apr-26 19:30N 52°25' E 004°49'0 0.0
2017-Apr-26 19:00N 52°25' E 004°49'0 0.0
2017-Apr-26 18:30N 52°25' E 004°49'0 0.0
2017-Apr-26 18:00N 52°25' E 004°49'0 0.0
2017-Apr-26 17:30N 52°25' E 004°49'0 0.0
2017-Apr-26 17:00N 52°25' E 004°49'0 0.0
2017-Apr-26 16:30N 52°25' E 004°49'0 0.0
2017-Apr-26 16:00N 52°25' E 004°49'0 0.0
2017-Apr-26 15:30N 52°25' E 004°49'0 0.0
2017-Apr-26 15:00N 52°25' E 004°49'0 0.0
2017-Apr-26 14:30N 52°25' E 004°49'0 0.0
2017-Apr-26 13:30N 52°25' E 004°49'0 0.0
2017-Apr-26 13:00N 52°25' E 004°49'0 0.0
2017-Apr-26 12:30N 52°25' E 004°49'0 0.0
2017-Apr-26 12:00N 52°25' E 004°49'0 0.0
2017-Apr-26 11:30N 52°25' E 004°49'0 0.0
2017-Apr-26 11:00N 52°25' E 004°49'0 0.0
2017-Apr-26 10:30N 52°25' E 004°49'0 0.0
2017-Apr-26 10:00N 52°25' E 004°49'0 0.0
2017-Apr-26 09:30N 52°25' E 004°49'0 0.0
2017-Apr-26 09:00N 52°25' E 004°49'0 0.0
2017-Apr-26 08:30N 52°25' E 004°49'0 0.0
2017-Apr-26 08:00N 52°25' E 004°49'0 0.0
2017-Apr-26 07:30N 52°25' E 004°49'0 0.0
2017-Apr-26 06:54N 52°25' E 004°49'0 0.0
2017-Apr-26 06:30N 52°25' E 004°49'0 0.0
2017-Apr-26 06:00N 52°25' E 004°49'0 0.0
2017-Apr-26 05:30N 52°25' E 004°49'0 0.1
2017-Apr-26 05:00N 52°25' E 004°49'0 0.1
2017-Apr-26 04:30N 52°25' E 004°49'0 0.0
2017-Apr-26 04:00N 52°25' E 004°49'0 0.0
2017-Apr-26 03:30N 52°25' E 004°49'0 0.0
2017-Apr-26 03:00N 52°25' E 004°49'0 0.0
2017-Apr-26 02:30N 52°25' E 004°49'0 0.0
2017-Apr-26 02:00N 52°25' E 004°49'0 0.0
2017-Apr-26 01:30N 52°25' E 004°49'0 0.0
2017-Apr-26 00:57N 52°25' E 004°49'0 0.0
2017-Apr-26 00:30N 52°25' E 004°49'0 0.0
2017-Apr-26 00:00N 52°25' E 004°49'0 0.0
2017-Apr-25 23:30N 52°25' E 004°49'0 0.0
2017-Apr-25 23:00N 52°25' E 004°49'0 0.0
2017-Apr-25 22:30N 52°25' E 004°49'0 0.0
2017-Apr-25 22:00N 52°25' E 004°49'0 0.0
2017-Apr-25 21:30N 52°25' E 004°49'0 0.0
2017-Apr-25 21:00N 52°25' E 004°49'0 0.0
2017-Apr-25 20:30N 52°25' E 004°49'0 0.0
2017-Apr-25 20:00N 52°25' E 004°49'1 2.1
2017-Apr-25 19:31N 52°25' E 004°48'3 6.1
2017-Apr-25 19:00N 52°26' E 004°43'3 5.7
2017-Apr-25 18:30N 52°28' E 004°39'2 3.1
2017-Apr-25 18:00N 52°28' E 004°36'0 0.0
2017-Apr-25 17:31N 52°28' E 004°36'0 0.0
2017-Apr-25 17:01N 52°28' E 004°36'1 2.1
2017-Apr-25 16:30N 52°28' E 004°35'4 7.8
2017-Apr-25 16:01N 52°28' E 004°28'4 7.2
2017-Apr-25 15:30N 52°29' E 004°22'3 5.6
2017-Apr-25 15:01N 52°28' E 004°18'6 6.1
2017-Apr-25 13:58N 52°28' E 004°08'0 0.0
2017-Apr-25 13:28N 52°28' E 004°08'0 0.1
2017-Apr-25 12:58N 52°28' E 004°08'0 0.4
2017-Apr-25 12:28N 52°28' E 004°08'0 0.1
2017-Apr-25 11:58N 52°28' E 004°08'0 0.1
2017-Apr-25 11:28N 52°27' E 004°08'0 0.1
2017-Apr-25 10:58N 52°27' E 004°08'0 0.1
2017-Apr-25 10:28N 52°27' E 004°08'0 0.1
2017-Apr-25 09:58N 52°27' E 004°07'0 0.0
2017-Apr-25 09:28N 52°27' E 004°07'0 0.1
2017-Apr-25 08:58N 52°27' E 004°07'0 0.0
2017-Apr-25 08:28N 52°27' E 004°07'0 0.0
2017-Apr-25 07:58N 52°27' E 004°07'0 0.0
2017-Apr-25 07:28N 52°27' E 004°07'0 0.1
2017-Apr-25 06:58N 52°27' E 004°08'0 0.1
2017-Apr-25 06:28N 52°27' E 004°08'0 0.1
2017-Apr-25 05:58N 52°27' E 004°08'0 0.1
2017-Apr-25 05:28N 52°27' E 004°08'0 0.1
2017-Apr-25 04:58N 52°28' E 004°08'0 0.1
2017-Apr-25 04:28N 52°28' E 004°08'0 0.3
2017-Apr-25 03:58N 52°28' E 004°08'0 0.1
2017-Apr-25 03:28N 52°28' E 004°08'0 0.1
2017-Apr-25 02:58N 52°28' E 004°08'0 0.1
2017-Apr-25 02:28N 52°28' E 004°08'0 0.0
2017-Apr-25 01:55N 52°28' E 004°08'0 0.0
2017-Apr-25 01:28N 52°28' E 004°08'0 0.0
2017-Apr-25 00:58N 52°28' E 004°08'0 0.1
2017-Apr-25 00:28N 52°28' E 004°08'0 0.2
2017-Apr-24 23:58N 52°28' E 004°08'0 0.1
2017-Apr-24 23:28N 52°28' E 004°08'0 0.2
2017-Apr-24 22:58N 52°28' E 004°08'0 0.2
2017-Apr-24 22:28N 52°28' E 004°07'0 0.1
2017-Apr-24 21:58N 52°28' E 004°07'0 0.0
2017-Apr-24 21:28N 52°28' E 004°07'0 0.0
2017-Apr-24 20:58N 52°28' E 004°07'0 0.0
2017-Apr-24 20:28N 52°28' E 004°07'0 0.0
2017-Apr-24 19:58N 52°28' E 004°07'0 0.0
2017-Apr-24 19:28N 52°28' E 004°07'0 0.0
2017-Apr-24 18:58N 52°28' E 004°07'0 0.0
2017-Apr-24 18:28N 52°28' E 004°07'0 0.1
2017-Apr-24 17:58N 52°28' E 004°07'0 0.1
2017-Apr-24 17:28N 52°28' E 004°08'0 0.1
2017-Apr-24 16:58N 52°28' E 004°08'0 0.2
2017-Apr-24 16:28N 52°28' E 004°08'0 0.1
2017-Apr-24 15:58N 52°28' E 004°08'0 0.0
2017-Apr-24 15:28N 52°28' E 004°08'0 0.0
2017-Apr-24 14:55N 52°28' E 004°08'0 0.0
2017-Apr-24 14:28N 52°28' E 004°08'0 0.0
2017-Apr-24 13:28N 52°28' E 004°08'0 0.0
2017-Apr-24 12:58N 52°28' E 004°08'0 0.0
2017-Apr-24 12:28N 52°28' E 004°08'0 0.1
2017-Apr-24 11:58N 52°28' E 004°08'0 0.1
2017-Apr-24 11:28N 52°28' E 004°08'0 0.1
2017-Apr-24 10:58N 52°28' E 004°08'0 0.2
2017-Apr-24 10:28N 52°28' E 004°08'0 0.1
2017-Apr-24 09:58N 52°28' E 004°07'0 0.1
2017-Apr-24 09:28N 52°28' E 004°07'0 0.1
2017-Apr-24 08:58N 52°28' E 004°07'0 0.1
2017-Apr-24 08:28N 52°28' E 004°07'0 0.0
2017-Apr-24 07:55N 52°28' E 004°07'0 0.0
2017-Apr-24 07:28N 52°28' E 004°07'0 0.0
2017-Apr-24 06:58N 52°28' E 004°07'0 0.1
2017-Apr-24 06:28N 52°28' E 004°07'0 0.2
2017-Apr-24 05:58N 52°28' E 004°08'0 0.2
2017-Apr-24 05:28N 52°28' E 004°08'0 0.1
2017-Apr-24 04:58N 52°28' E 004°08'0 0.1
2017-Apr-24 04:28N 52°28' E 004°08'0 0.1
2017-Apr-24 03:55N 52°28' E 004°08'0 0.1
2017-Apr-24 03:28N 52°28' E 004°08'0 0.0
2017-Apr-24 02:55N 52°28' E 004°08'0 0.0
2017-Apr-24 02:28N 52°28' E 004°08'0 0.0
2017-Apr-24 01:58N 52°28' E 004°08'0 0.0
2017-Apr-24 01:22N 52°28' E 004°08'0 0.0
2017-Apr-24 00:58N 52°28' E 004°08'0 0.0
2017-Apr-24 00:25N 52°28' E 004°08'0 0.0
2017-Apr-23 23:55N 52°28' E 004°08'0 0.1
2017-Apr-23 23:25N 52°28' E 004°08'0 0.1
2017-Apr-23 22:55N 52°28' E 004°08'0 0.2
2017-Apr-23 22:28N 52°28' E 004°08'0 0.2
2017-Apr-23 21:55N 52°28' E 004°08'0 0.1
2017-Apr-23 21:25N 52°28' E 004°07'0 0.1
2017-Apr-23 20:58N 52°28' E 004°07'0 0.0
2017-Apr-23 20:28N 52°28' E 004°07'0 0.0
2017-Apr-23 19:55N 52°28' E 004°07'0 0.0
2017-Apr-23 19:28N 52°28' E 004°07'0 0.0
2017-Apr-23 18:55N 52°28' E 004°07'0 0.0
2017-Apr-23 18:28N 52°28' E 004°07'0 0.0
2017-Apr-23 17:58N 52°28' E 004°07'0 0.1
2017-Apr-23 17:25N 52°28' E 004°07'0 0.1
2017-Apr-23 16:55N 52°27' E 004°08'0 0.1
2017-Apr-23 16:28N 52°28' E 004°08'0 0.1
2017-Apr-23 15:55N 52°28' E 004°08'0 0.3
2017-Apr-23 15:25N 52°28' E 004°08'0 0.1
2017-Apr-23 14:34N 52°28' E 004°07'0 0.0
2017-Apr-23 13:46N 52°28' E 004°07'0 0.0
2017-Apr-23 13:04N 52°28' E 004°07'0 0.1
2017-Apr-23 12:58N 52°28' E 004°07'0 0.0
2017-Apr-23 12:28N 52°28' E 004°07'0 0.1
2017-Apr-23 11:55N 52°28' E 004°08'0 0.2
2017-Apr-23 11:25N 52°28' E 004°08'0 0.3
2017-Apr-23 10:58N 52°28' E 004°08'0 0.2
2017-Apr-23 10:28N 52°27' E 004°08'0 0.1
2017-Apr-23 09:58N 52°27' E 004°08'0 0.1
2017-Apr-23 09:25N 52°27' E 004°07'0 0.1
2017-Apr-23 08:58N 52°27' E 004°07'0 0.0
2017-Apr-23 08:25N 52°27' E 004°07'0 0.0
2017-Apr-23 07:55N 52°27' E 004°07'0 0.0
2017-Apr-23 07:28N 52°27' E 004°07'0 0.0
2017-Apr-23 06:58N 52°27' E 004°07'0 0.0
2017-Apr-23 06:28N 52°27' E 004°07'0 0.0
2017-Apr-23 05:58N 52°27' E 004°07'0 0.0
2017-Apr-23 05:28N 52°27' E 004°07'0 0.0
2017-Apr-23 04:58N 52°27' E 004°07'0 0.1
2017-Apr-23 04:25N 52°27' E 004°07'0 0.0
2017-Apr-23 03:55N 52°27' E 004°07'0 0.1
2017-Apr-23 03:25N 52°27' E 004°08'0 0.0
2017-Apr-23 02:58N 52°27' E 004°08'0 0.1
2017-Apr-23 02:28N 52°27' E 004°08'0 0.2
2017-Apr-23 01:58N 52°28' E 004°08'0 0.1
2017-Apr-23 01:25N 52°28' E 004°08'0 0.0
2017-Apr-23 00:55N 52°28' E 004°08'0 0.1
2017-Apr-23 00:25N 52°28' E 004°08'0 0.1
2017-Apr-22 23:58N 52°28' E 004°08'0 0.1
2017-Apr-22 23:28N 52°28' E 004°08'0 0.1
2017-Apr-22 22:58N 52°27' E 004°08'0 0.1
2017-Apr-22 22:28N 52°27' E 004°08'0 0.1
2017-Apr-22 21:58N 52°27' E 004°08'0 0.1
2017-Apr-22 21:28N 52°27' E 004°07'0 0.0
2017-Apr-22 20:55N 52°27' E 004°07'0 0.1
2017-Apr-22 20:25N 52°27' E 004°07'0 0.0
2017-Apr-22 19:58N 52°27' E 004°07'0 0.0
2017-Apr-22 19:28N 52°27' E 004°07'0 0.0
2017-Apr-22 18:58N 52°27' E 004°07'0 0.0
2017-Apr-22 18:25N 52°27' E 004°07'0 0.0
2017-Apr-22 17:58N 52°27' E 004°07'0 0.0
2017-Apr-22 17:28N 52°27' E 004°07'0 0.0
2017-Apr-22 16:55N 52°27' E 004°07'0 0.0
2017-Apr-22 16:28N 52°27' E 004°07'0 0.1
2017-Apr-22 15:58N 52°27' E 004°07'0 0.0
2017-Apr-22 15:28N 52°27' E 004°07'0 0.0
2017-Apr-22 14:55N 52°27' E 004°08'0 0.1
2017-Apr-22 14:25N 52°27' E 004°08'0 0.1
2017-Apr-22 13:28N 52°28' E 004°08'0 0.2
2017-Apr-22 12:58N 52°28' E 004°08'0 0.0
2017-Apr-22 12:13N 52°28' E 004°08'0 0.1
2017-Apr-22 11:58N 52°28' E 004°08'0 0.1
2017-Apr-22 11:28N 52°28' E 004°08'0 0.1
2017-Apr-22 10:58N 52°28' E 004°08'0 0.1
2017-Apr-22 10:28N 52°27' E 004°08'0 0.1
2017-Apr-22 09:58N 52°27' E 004°07'0 0.1
2017-Apr-22 09:28N 52°27' E 004°07'0 0.0
2017-Apr-22 08:58N 52°27' E 004°07'0 0.0
2017-Apr-22 08:28N 52°27' E 004°07'0 0.1
2017-Apr-22 07:58N 52°27' E 004°07'0 0.0
2017-Apr-22 07:28N 52°27' E 004°07'0 0.1
2017-Apr-22 06:58N 52°27' E 004°07'0 0.0
2017-Apr-22 06:28N 52°27' E 004°07'0 0.0
2017-Apr-22 05:58N 52°27' E 004°07'0 0.0
2017-Apr-22 05:28N 52°27' E 004°07'0 0.0
2017-Apr-22 04:58N 52°27' E 004°07'0 0.0
2017-Apr-22 04:28N 52°27' E 004°07'0 0.0
2017-Apr-22 03:58N 52°27' E 004°07'0 0.1
2017-Apr-22 03:28N 52°27' E 004°07'0 0.0
2017-Apr-22 02:58N 52°27' E 004°07'0 0.0
2017-Apr-22 02:28N 52°27' E 004°07'0 0.2
2017-Apr-22 01:58N 52°28' E 004°08'0 0.2
2017-Apr-22 01:28N 52°28' E 004°08'0 0.1
2017-Apr-22 00:58N 52°28' E 004°07'0 0.0
2017-Apr-22 00:28N 52°28' E 004°07'0 0.0
2017-Apr-21 23:58N 52°28' E 004°07'0 0.0
2017-Apr-21 23:28N 52°28' E 004°07'0 0.0
2017-Apr-21 22:58N 52°28' E 004°07'0 0.0
2017-Apr-21 22:25N 52°28' E 004°07'0 0.1
2017-Apr-21 21:58N 52°28' E 004°08'0 0.1
2017-Apr-21 21:28N 52°28' E 004°08'0 0.2
2017-Apr-21 20:58N 52°28' E 004°08'0 0.2
2017-Apr-21 20:28N 52°28' E 004°08'0 0.1
2017-Apr-21 19:58N 52°28' E 004°08'0 0.1
2017-Apr-21 19:28N 52°27' E 004°07'0 0.1
2017-Apr-21 18:58N 52°27' E 004°07'0 0.0
2017-Apr-21 18:28N 52°27' E 004°07'0 0.0
2017-Apr-21 17:58N 52°27' E 004°07'0 0.0
2017-Apr-21 17:28N 52°27' E 004°07'0 0.0
2017-Apr-21 16:58N 52°27' E 004°07'0 0.0
2017-Apr-21 16:28N 52°27' E 004°07'0 0.0
2017-Apr-21 15:55N 52°27' E 004°07'0 0.1
2017-Apr-21 15:28N 52°27' E 004°07'0 0.2
2017-Apr-21 14:58N 52°28' E 004°08'0 0.1
2017-Apr-21 14:28N 52°28' E 004°08'0 0.1
2017-Apr-21 13:28N 52°28' E 004°08'0 0.1
2017-Apr-21 12:58N 52°28' E 004°08'0 0.1
2017-Apr-21 12:28N 52°28' E 004°08'0 0.0
2017-Apr-21 11:58N 52°28' E 004°08'0 0.0
2017-Apr-21 11:28N 52°28' E 004°07'0 0.0
2017-Apr-21 10:58N 52°28' E 004°07'0 0.0
2017-Apr-21 10:28N 52°28' E 004°08'0 0.0
2017-Apr-21 09:58N 52°28' E 004°07'0 0.0
2017-Apr-21 09:28N 52°28' E 004°08'0 0.1
2017-Apr-21 08:58N 52°28' E 004°08'0 0.0
2017-Apr-21 08:28N 52°28' E 004°08'0 0.2
2017-Apr-21 07:58N 52°28' E 004°08'0 0.2
2017-Apr-21 07:28N 52°27' E 004°08'0 0.1
2017-Apr-21 06:58N 52°27' E 004°07'0 0.2
2017-Apr-21 06:28N 52°27' E 004°07'0 0.3
2017-Apr-21 06:01N 52°28' E 004°07'0 0.2
2017-Apr-21 05:31N 52°28' E 004°07'1 1.9
2017-Apr-21 05:01N 52°28' E 004°06'2 4.8
2017-Apr-21 04:31N 52°28' E 004°02'3 6.3
2017-Apr-21 04:01N 52°27' E 003°57'4 7.2
2017-Apr-21 03:31N 52°30' E 003°53'611.5
2017-Apr-21 03:00N 52°36' E 003°53'2212.1
2017-Apr-21 01:11N 52°58' E 004°01'1311.3
2017-Apr-21 00:01N 53°07' E 004°17'34011.1
2017-Apr-19 17:30N 57°50' E 009°48'510.7
2017-Apr-19 17:00N 57°50' E 009°58'611.2
2017-Apr-19 16:29N 57°50' E 010°09'611.3
2017-Apr-19 15:59N 57°50' E 010°19'611.5
2017-Apr-19 15:30N 57°51' E 010°30'611.2
2017-Apr-19 15:00N 57°51' E 010°40'611.3
2017-Apr-19 14:28N 57°47' E 010°48'9 8.9
2017-Apr-19 13:30N 57°41' E 010°60'510.6
2017-Apr-19 13:00N 57°37' E 011°07'611.6
2017-Apr-19 12:31N 57°33' E 011°15'611.2
2017-Apr-19 12:00N 57°29' E 011°22'611.3
2017-Apr-19 11:30N 57°24' E 011°27'611.6
2017-Apr-19 11:00N 57°19' E 011°31'611.4
2017-Apr-19 10:31N 57°14' E 011°35'611.8
2017-Apr-19 10:00N 57°08' E 011°39'11510.5
2017-Apr-18 23:05N 55°15' E 011°06'111.9
2017-Apr-18 23:00N 55°14' E 011°06'511.2
2017-Apr-18 22:31N 55°09' E 011°00'612.2
2017-Apr-18 22:01N 55°03' E 010°60'611.5
2017-Apr-18 21:31N 54°58' E 010°56'611.9
2017-Apr-18 21:01N 54°53' E 010°50'612.1
2017-Apr-18 20:31N 54°47' E 010°49'611.2
2017-Apr-18 20:01N 54°41' E 010°47'611.8
2017-Apr-18 19:31N 54°38' E 010°55'611.8
2017-Apr-18 19:01N 54°36' E 011°05'612.0
2017-Apr-18 18:31N 54°35' E 011°15'612.1
2017-Apr-18 18:01N 54°32' E 011°24'612.1
2017-Apr-18 17:30N 54°29' E 011°34'1711.7
2017-Apr-18 16:01N 54°26' E 012°03'011.3
2017-Apr-18 16:01N 54°26' E 012°03'510.0
2017-Apr-18 15:30N 54°28' E 012°12'510.2
2017-Apr-18 15:01N 54°33' E 012°14'5 9.9
2017-Apr-18 14:31N 54°37' E 012°18'5010.4
2017-Apr-18 09:40N 54°59' E 013°37'212.4
2017-Apr-18 09:29N 54°60' E 013°40'612.5
2017-Apr-18 09:00N 55°01' E 013°50'612.3
2017-Apr-18 08:29N 55°03' E 014°01'611.9
2017-Apr-18 08:00N 55°07' E 014°09'612.0
2017-Apr-18 07:30N 55°12' E 014°15'612.2
2017-Apr-18 07:00N 55°16' E 014°22'612.4
2017-Apr-18 06:29N 55°21' E 014°29'612.2
2017-Apr-18 05:58N 55°26' E 014°36'612.1
2017-Apr-18 05:30N 55°29' E 014°45'612.4
2017-Apr-18 04:59N 55°32' E 014°55'712.5
2017-Apr-18 04:27N 55°35' E 015°06'612.4
2017-Apr-18 03:57N 55°38' E 015°16'  

Dump ship's entire track history